Time;durP1;ratioP1;P1;durP2;ratioP2;P2;SDS_P1;SDS_P2;PMS_P1;PMS_P2;Temp;Humidity;BMP_temperature;BMP_pressure;BME280_temperature;BME280_humidity;BME280_pressure;Samples;Min_cycle;Max_cycle;Signal;HPM_P1;HPM_P2
2020/07/12 00:01:18;;;;;;;2.7;2.2;;;;;;;;;;;;;
2020/07/12 00:03:43;;;;;;;3.5;2.5;;;;;;;;;;;;;
2020/07/12 00:06:08;;;;;;;4.2;2.3;;;;;;;;;;;;;
2020/07/12 00:08:33;;;;;;;2.8;2.5;;;;;;;;;;;;;
2020/07/12 00:10:58;;;;;;;3.6;2.7;;;;;;;;;;;;;
2020/07/12 00:13:23;;;;;;;2.8;2.4;;;;;;;;;;;;;
2020/07/12 00:15:48;;;;;;;2.6;2.4;;;;;;;;;;;;;
2020/07/12 00:18:14;;;;;;;2.6;2.4;;;;;;;;;;;;;
2020/07/12 00:20:39;;;;;;;3.2;2.5;;;;;;;;;;;;;
2020/07/12 00:23:04;;;;;;;3.2;2.8;;;;;;;;;;;;;
2020/07/12 00:25:54;;;;;;;4.5;2.9;;;;;;;;;;;;;
2020/07/12 00:28:19;;;;;;;3.5;3.2;;;;;;;;;;;;;
2020/07/12 00:30:45;;;;;;;3.5;3.2;;;;;;;;;;;;;
2020/07/12 00:33:10;;;;;;;4.4;3.3;;;;;;;;;;;;;
2020/07/12 00:35:36;;;;;;;4.3;3.8;;;;;;;;;;;;;
2020/07/12 00:38:01;;;;;;;3.7;3.4;;;;;;;;;;;;;
2020/07/12 00:40:26;;;;;;;5;3.6;;;;;;;;;;;;;
2020/07/12 00:42:51;;;;;;;4.2;3.6;;;;;;;;;;;;;
2020/07/12 00:45:16;;;;;;;3.1;2.7;;;;;;;;;;;;;
2020/07/12 00:47:42;;;;;;;5.5;2.7;;;;;;;;;;;;;
2020/07/12 00:50:07;;;;;;;4.5;3.4;;;;;;;;;;;;;
2020/07/12 00:52:32;;;;;;;3.5;2.7;;;;;;;;;;;;;
2020/07/12 00:54:57;;;;;;;3.8;2.4;;;;;;;;;;;;;
2020/07/12 00:57:22;;;;;;;3;2.7;;;;;;;;;;;;;
2020/07/12 00:59:47;;;;;;;3.9;2.7;;;;;;;;;;;;;
2020/07/12 01:02:14;;;;;;;3.9;2.7;;;;;;;;;;;;;
2020/07/12 01:04:39;;;;;;;3.7;3.3;;;;;;;;;;;;;
2020/07/12 01:07:04;;;;;;;5.8;3.6;;;;;;;;;;;;;
2020/07/12 01:09:30;;;;;;;4.4;3.7;;;;;;;;;;;;;
2020/07/12 01:11:56;;;;;;;4.4;3.4;;;;;;;;;;;;;
2020/07/12 01:14:21;;;;;;;5;3.3;;;;;;;;;;;;;
2020/07/12 01:16:47;;;;;;;3.5;3.2;;;;;;;;;;;;;
2020/07/12 01:19:12;;;;;;;3.2;2.9;;;;;;;;;;;;;
2020/07/12 01:21:38;;;;;;;4.6;2.7;;;;;;;;;;;;;
2020/07/12 01:24:03;;;;;;;3.8;2.7;;;;;;;;;;;;;
2020/07/12 01:26:29;;;;;;;3.2;2.6;;;;;;;;;;;;;
2020/07/12 01:28:54;;;;;;;4.3;2.6;;;;;;;;;;;;;
2020/07/12 01:31:20;;;;;;;2.6;2.4;;;;;;;;;;;;;
2020/07/12 01:34:00;;;;;;;2.8;2.6;;;;;;;;;;;;;
2020/07/12 01:36:11;;;;;;;4.6;2.7;;;;;;;;;;;;;
2020/07/12 01:38:36;;;;;;;3.7;2.6;;;;;;;;;;;;;
2020/07/12 01:41:01;;;;;;;3.9;2.7;;;;;;;;;;;;;
2020/07/12 01:43:26;;;;;;;4;2.5;;;;;;;;;;;;;
2020/07/12 01:45:53;;;;;;;4.6;2.7;;;;;;;;;;;;;
2020/07/12 01:48:18;;;;;;;2.6;2.3;;;;;;;;;;;;;
2020/07/12 01:50:44;;;;;;;3.6;2.5;;;;;;;;;;;;;
2020/07/12 01:53:09;;;;;;;4.9;3.1;;;;;;;;;;;;;
2020/07/12 01:55:34;;;;;;;3.8;2.7;;;;;;;;;;;;;
2020/07/12 01:57:59;;;;;;;3.2;2.6;;;;;;;;;;;;;
2020/07/12 02:00:25;;;;;;;2.7;2.4;;;;;;;;;;;;;
2020/07/12 02:02:50;;;;;;;3.4;2.3;;;;;;;;;;;;;
2020/07/12 02:05:15;;;;;;;3.8;2;;;;;;;;;;;;;
2020/07/12 02:07:40;;;;;;;3.6;2.8;;;;;;;;;;;;;
2020/07/12 02:10:05;;;;;;;2.7;2.5;;;;;;;;;;;;;
2020/07/12 02:12:30;;;;;;;4.3;2.7;;;;;;;;;;;;;
2020/07/12 02:14:56;;;;;;;3;2.5;;;;;;;;;;;;;
2020/07/12 02:17:22;;;;;;;3.4;2.5;;;;;;;;;;;;;
2020/07/12 02:19:47;;;;;;;3.4;2.7;;;;;;;;;;;;;
2020/07/12 02:22:12;;;;;;;3.7;2.9;;;;;;;;;;;;;
2020/07/12 02:24:37;;;;;;;3.7;2.9;;;;;;;;;;;;;
2020/07/12 02:27:02;;;;;;;3.8;2.9;;;;;;;;;;;;;
2020/07/12 02:29:27;;;;;;;3.2;2.8;;;;;;;;;;;;;
2020/07/12 02:31:52;;;;;;;4.2;3;;;;;;;;;;;;;
2020/07/12 02:34:18;;;;;;;3.3;3;;;;;;;;;;;;;
2020/07/12 02:36:43;;;;;;;3.3;3;;;;;;;;;;;;;
2020/07/12 02:39:08;;;;;;;4.7;3.1;;;;;;;;;;;;;
2020/07/12 02:41:33;;;;;;;3.7;3.1;;;;;;;;;;;;;
2020/07/12 02:43:59;;;;;;;4.4;3.2;;;;;;;;;;;;;
2020/07/12 02:46:24;;;;;;;3.6;3.3;;;;;;;;;;;;;
2020/07/12 02:48:50;;;;;;;3.9;2.9;;;;;;;;;;;;;
2020/07/12 02:51:15;;;;;;;4.6;3.1;;;;;;;;;;;;;
2020/07/12 02:53:41;;;;;;;3.5;3.2;;;;;;;;;;;;;
2020/07/12 02:56:06;;;;;;;4.1;3.2;;;;;;;;;;;;;
2020/07/12 02:58:32;;;;;;;4.6;2.9;;;;;;;;;;;;;
2020/07/12 03:00:57;;;;;;;4.6;2.8;;;;;;;;;;;;;
2020/07/12 03:03:24;;;;;;;5.2;3.2;;;;;;;;;;;;;
2020/07/12 03:05:49;;;;;;;3.9;3.1;;;;;;;;;;;;;
2020/07/12 03:08:14;;;;;;;4.7;3.3;;;;;;;;;;;;;
2020/07/12 03:10:39;;;;;;;5.5;3.5;;;;;;;;;;;;;
2020/07/12 03:13:07;;;;;;;3.5;3.2;;;;;;;;;;;;;
2020/07/12 03:15:32;;;;;;;3.8;2.9;;;;;;;;;;;;;
2020/07/12 03:17:58;;;;;;;3;2.8;;;;;;;;;;;;;
2020/07/12 03:20:23;;;;;;;3;2.7;;;;;;;;;;;;;
2020/07/12 03:22:49;;;;;;;3.1;2.8;;;;;;;;;;;;;
2020/07/12 03:25:14;;;;;;;4.3;2.9;;;;;;;;;;;;;
2020/07/12 03:27:40;;;;;;;3.8;2.6;;;;;;;;;;;;;
2020/07/12 03:30:05;;;;;;;3.8;2.9;;;;;;;;;;;;;
2020/07/12 03:32:32;;;;;;;4.2;2.7;;;;;;;;;;;;;
2020/07/12 03:34:58;;;;;;;4.3;2.9;;;;;;;;;;;;;
2020/07/12 03:37:23;;;;;;;3;2.8;;;;;;;;;;;;;
2020/07/12 03:39:48;;;;;;;4.2;3;;;;;;;;;;;;;
2020/07/12 03:42:13;;;;;;;3.7;3.1;;;;;;;;;;;;;
2020/07/12 03:44:38;;;;;;;3.3;3;;;;;;;;;;;;;
2020/07/12 03:47:05;;;;;;;4.5;3.3;;;;;;;;;;;;;
2020/07/12 03:49:30;;;;;;;3.3;3;;;;;;;;;;;;;
2020/07/12 03:51:55;;;;;;;3.4;2.9;;;;;;;;;;;;;
2020/07/12 03:54:20;;;;;;;4.5;3;;;;;;;;;;;;;
2020/07/12 03:56:46;;;;;;;3.5;3;;;;;;;;;;;;;
2020/07/12 03:59:11;;;;;;;3.3;2.8;;;;;;;;;;;;;
2020/07/12 04:02:33;;;;;;;3.3;2.8;;;;;;;12.44;89.12793;945.4656;;;;
2020/07/12 04:04:58;;;;;;;3.9;3;;;;;;;12.41;89.05371;945.4977;;;;
2020/07/12 04:07:25;;;;;;;4.9;2.9;;;;;;;12.22;89.50586;945.4974;;;;
2020/07/12 04:09:50;;;;;;;5.2;2.5;;;;;;;12.17;89.85156;945.5747;;;;
2020/07/12 04:12:17;;;;;;;3.3;2.6;;;;;;;12.22;89.66797;945.587;;;;
2020/07/12 04:14:42;;;;;;;3.3;2.6;;;;;;;12.25;89.83398;945.5714;;;;
2020/07/12 04:17:08;;;;;;;3.1;2.4;;;;;;;12.26;89.5957;945.5747;;;;
2020/07/12 04:19:34;;;;;;;3.6;2.4;;;;;;;12.24;89.51172;945.6311;;;;
2020/07/12 04:21:59;;;;;;;3;2.3;;;;;;;12.23;89.34961;945.571;;;;
2020/07/12 04:24:26;;;;;;;3;2.4;;;;;;;12.25;89.38574;945.6663;;;;
2020/07/12 04:26:52;;;;;;;2.4;2.2;;;;;;;12.33;89.06055;945.7098;;;;
2020/07/12 04:29:18;;;;;;;3.1;2.3;;;;;;;12.34;88.98145;945.6805;;;;
2020/07/12 04:31:43;;;;;;;3.4;2.1;;;;;;;12.35;88.78906;945.6958;;;;
2020/07/12 04:34:08;;;;;;;4.3;2.4;;;;;;;12.36;88.95117;945.6926;;;;
2020/07/12 04:36:35;;;;;;;2.7;2.1;;;;;;;12.32;89.29883;945.6827;;;;
2020/07/12 04:39:00;;;;;;;2.8;2.1;;;;;;;12.44;89.33691;945.6719;;;;
2020/07/12 04:41:30;;;;;;;3.1;2.3;;;;;;;12.55;89.21973;945.7133;;;;
2020/07/12 04:43:59;;;;;;;3.5;2.2;;;;;;;12.62;88.4541;945.677;;;;
2020/07/12 04:46:24;;;;;;;4.4;2;;;;;;;12.68;88.0293;945.6594;;;;
2020/07/12 04:48:50;;;;;;;3.7;2;;;;;;;12.8;87.83691;945.6769;;;;
2020/07/12 04:51:15;;;;;;;3.1;2;;;;;;;13.01;87.48828;945.687;;;;
2020/07/12 04:53:41;;;;;;;4;1.9;;;;;;;13.19;86.51172;945.7392;;;;
2020/07/12 04:56:09;;;;;;;1.9;1.8;;;;;;;13.35;86.15527;945.7573;;;;
2020/07/12 04:58:31;;;;;;;3.2;2;;;;;;;13.49;85.57227;945.7367;;;;
2020/07/12 05:00:56;;;;;;;3.3;1.9;;;;;;;13.53;85.12207;945.7659;;;;
2020/07/12 05:03:24;;;;;;;2.2;1.8;;;;;;;13.42;85.44336;945.7831;;;;
2020/07/12 05:05:49;;;;;;;2.8;2;;;;;;;13.43;85.39941;945.7536;;;;
2020/07/12 05:08:14;;;;;;;4.3;1.7;;;;;;;13.55;85.125;945.731;;;;
2020/07/12 05:10:39;;;;;;;4.7;1.9;;;;;;;13.61;84.5166;945.7971;;;;
2020/07/12 05:13:05;;;;;;;2.7;1.5;;;;;;;13.81;83.77441;945.7025;;;;
2020/07/12 05:15:35;;;;;;;3.1;1.5;;;;;;;14.7;81.53516;945.7972;;;;
2020/07/12 05:18:03;;;;;;;2.5;1.4;;;;;;;15.45;76.89355;945.787;;;;
2020/07/12 05:20:29;;;;;;;2.3;1.4;;;;;;;15.52;75.77441;945.7648;;;;
2020/07/12 05:22:55;;;;;;;3.6;1.9;;;;;;;15.35;76.86621;945.764;;;;
2020/07/12 05:25:21;;;;;;;1.9;1.7;;;;;;;15.04;77.9873;945.7883;;;;
2020/07/12 05:27:47;;;;;;;2.7;1.8;;;;;;;14.96;79.33496;945.851;;;;
2020/07/12 05:30:14;;;;;;;2.3;1.7;;;;;;;14.99;79.13086;945.819;;;;
2020/07/12 05:32:42;;;;;;;3.6;1.9;;;;;;;14.96;80.06055;945.8397;;;;
2020/07/12 05:35:07;;;;;;;1.8;1.6;;;;;;;15.21;80.6377;945.7697;;;;
2020/07/12 05:37:36;;;;;;;1.6;1.4;;;;;;;15.75;77.10938;945.7988;;;;
2020/07/12 05:40:01;;;;;;;2.3;1.3;;;;;;;17.3;72.5918;945.7703;;;;
2020/07/12 05:42:28;;;;;;;1.2;1.1;;;;;;;18.64;66.29883;945.7548;;;;
2020/07/12 05:44:53;;;;;;;1.4;1.1;;;;;;;18.97;64.60352;945.8599;;;;
2020/07/12 05:47:20;;;;;;;1.4;1.1;;;;;;;19.83;64.26367;945.7831;;;;
2020/07/12 05:49:46;;;;;;;1.4;1;;;;;;;19.62;60.25684;945.808;;;;
2020/07/12 05:52:12;;;;;;;1.7;1.2;;;;;;;19.31;61.56641;945.8097;;;;
2020/07/12 05:54:37;;;;;;;2;1.1;;;;;;;19.47;61.55371;945.8347;;;;
2020/07/12 05:57:03;;;;;;;1.2;1;;;;;;;19.67;61.12695;945.8359;;;;
2020/07/12 05:59:29;;;;;;;1.5;1.1;;;;;;;19.34;61.69824;945.7827;;;;
2020/07/12 06:01:54;;;;;;;2.2;1;;;;;;;19.73;59.56055;945.7785;;;;
2020/07/12 06:04:24;;;;;;;1.7;1.2;;;;;;;20.53;56.98145;945.877;;;;
2020/07/12 06:06:51;;;;;;;2.9;1.2;;;;;;;20.13;58.43652;945.8063;;;;
2020/07/12 06:09:16;;;;;;;2.1;0.9;;;;;;;20.94;57.67773;945.8209;;;;
2020/07/12 06:11:42;;;;;;;1.6;0.9;;;;;;;20.86;58.80176;945.7308;;;;
2020/07/12 06:14:08;;;;;;;2.5;1;;;;;;;21.54;56.94824;945.7633;;;;
2020/07/12 06:16:35;;;;;;;3;1;;;;;;;21.4;56.01855;945.7723;;;;
2020/07/12 06:19:00;;;;;;;1.3;0.8;;;;;;;21.16;56.59473;945.7896;;;;
2020/07/12 06:21:26;;;;;;;1.3;1;;;;;;;20.6;58.07813;945.7955;;;;
2020/07/12 06:23:51;;;;;;;1.7;1;;;;;;;20.07;60.75;945.7483;;;;
2020/07/12 06:26:17;;;;;;;1.2;1.1;;;;;;;19.36;61.18945;945.7953;;;;
2020/07/12 06:28:46;;;;;;;1.5;1;;;;;;;18.91;65.24707;945.783;;;;
2020/07/12 06:31:13;;;;;;;2.4;1;;;;;;;18.6;63.72461;945.7803;;;;
2020/07/12 06:33:43;;;;;;;1.2;1;;;;;;;18.59;63.96582;945.7644;;;;
2020/07/12 06:36:07;;;;;;;2.2;1.1;;;;;;;18.58;64.65137;945.7733;;;;
2020/07/12 06:38:33;;;;;;;1;0.9;;;;;;;19.65;64.07324;945.7303;;;;
2020/07/12 06:40:58;;;;;;;2.2;1.1;;;;;;;20.05;62.74316;945.6539;;;;
2020/07/12 06:43:25;;;;;;;2.9;1.1;;;;;;;20.31;61.98535;945.6404;;;;
2020/07/12 06:45:50;;;;;;;1;0.9;;;;;;;20.37;61.38672;945.7164;;;;
2020/07/12 06:48:15;;;;;;;3.6;0.9;;;;;;;19.95;61.04883;945.7449;;;;
2020/07/12 06:50:40;;;;;;;1.9;0.8;;;;;;;21.1;60.66992;945.726;;;;
2020/07/12 06:53:07;;;;;;;1.5;0.9;;;;;;;22.79;53.44531;945.6752;;;;
2020/07/12 06:55:32;;;;;;;0.7;0.7;;;;;;;23.13;54.47266;945.6956;;;;
2020/07/12 06:58:00;;;;;;;1.4;0.8;;;;;;;24.55;46.79688;945.6497;;;;
2020/07/12 07:00:31;;;;;;;0.8;0.8;;;;;;;25.23;45.02637;945.6003;;;;
2020/07/12 07:02:59;;;;;;;2.7;0.8;;;;;;;24.3;46.41699;945.5837;;;;
2020/07/12 07:05:24;;;;;;;2.1;0.8;;;;;;;24.85;47.62988;945.5206;;;;
2020/07/12 07:07:54;;;;;;;0.9;0.8;;;;;;;26.36;44.54785;945.4786;;;;
2020/07/12 07:10:24;;;;;;;1.6;0.7;;;;;;;27.01;42.30176;945.4863;;;;
2020/07/12 07:12:52;;;;;;;1;0.7;;;;;;;28.06;37.17285;945.4852;;;;
2020/07/12 07:15:17;;;;;;;1.2;0.7;;;;;;;27.52;40.33203;945.4553;;;;
2020/07/12 07:17:42;;;;;;;2.5;0.7;;;;;;;26.82;41.86816;945.4609;;;;
2020/07/12 07:20:12;;;;;;;1.3;0.7;;;;;;;26.3;42.11621;945.3853;;;;
2020/07/12 07:22:39;;;;;;;1.4;0.9;;;;;;;24.47;47.55371;945.4032;;;;
2020/07/12 07:25:03;;;;;;;1.5;0.9;;;;;;;22.35;55.15137;945.4731;;;;
2020/07/12 07:27:28;;;;;;;1.5;1.1;;;;;;;21.53;58.59863;945.4077;;;;
2020/07/12 07:29:54;;;;;;;2.6;1.2;;;;;;;20.84;62.22363;945.4439;;;;
2020/07/12 07:32:19;;;;;;;3.3;1.4;;;;;;;21.77;61.15918;945.4182;;;;
2020/07/12 07:34:46;;;;;;;2.6;0.9;;;;;;;23.35;54.5127;945.4692;;;;
2020/07/12 07:37:11;;;;;;;2;1;;;;;;;23.86;55.35059;945.4207;;;;
2020/07/12 07:39:37;;;;;;;1.1;1;;;;;;;24.17;51.58594;945.442;;;;
2020/07/12 07:42:02;;;;;;;1.6;1;;;;;;;23.95;53.44434;945.3788;;;;
2020/07/12 07:44:29;;;;;;;2.1;1;;;;;;;23.95;56.02246;945.3658;;;;
2020/07/12 07:46:54;;;;;;;1.3;0.8;;;;;;;26.04;48.36035;945.3447;;;;
2020/07/12 07:49:19;;;;;;;1.1;0.7;;;;;;;25.62;46.68359;945.3245;;;;
2020/07/12 07:51:45;;;;;;;1.7;0.8;;;;;;;26.73;42.42969;945.4858;;;;
2020/07/12 07:54:10;;;;;;;0.7;0.7;;;;;;;26.71;45.88574;945.4942;;;;
2020/07/12 07:56:35;;;;;;;1.2;0.8;;;;;;;26.81;43.44336;945.4386;;;;
2020/07/12 07:59:00;;;;;;;2.1;0.8;;;;;;;28.53;42.00488;945.3922;;;;
2020/07/12 08:01:28;;;;;;;1.2;0.7;;;;;;;29.07;39.15039;945.3627;;;;
2020/07/12 08:03:53;;;;;;;1;0.8;;;;;;;29.36;37.55469;945.3803;;;;
2020/07/12 08:06:19;;;;;;;1.2;0.8;;;;;;;28.38;43.28613;945.4117;;;;
2020/07/12 08:08:44;;;;;;;1.4;0.8;;;;;;;28.74;41.3457;945.3617;;;;
2020/07/12 08:11:11;;;;;;;0.9;0.7;;;;;;;29.95;37.73438;945.3381;;;;
2020/07/12 08:13:36;;;;;;;0.7;0.7;;;;;;;31.03;36.24707;945.3394;;;;
2020/07/12 08:16:02;;;;;;;0.8;0.7;;;;;;;30.43;37.36914;945.3467;;;;
2020/07/12 08:18:27;;;;;;;2.2;0.7;;;;;;;30.26;37.7373;945.3003;;;;
2020/07/12 08:20:54;;;;;;;1.3;0.7;;;;;;;31.24;37.45996;945.2719;;;;
2020/07/12 08:23:18;;;;;;;1.1;0.6;;;;;;;31.88;35.52344;945.2287;;;;
2020/07/12 08:25:45;;;;;;;1.5;0.7;;;;;;;32.15;34.16602;945.2739;;;;
2020/07/12 08:28:10;;;;;;;1.6;0.7;;;;;;;32.9;33.38184;945.2422;;;;
2020/07/12 08:30:37;;;;;;;1;0.8;;;;;;;32.2;33.12695;945.2974;;;;
2020/07/12 08:33:02;;;;;;;0.9;0.6;;;;;;;31.56;34.66113;945.2946;;;;
2020/07/12 08:35:28;;;;;;;0.9;0.7;;;;;;;31.48;35.6123;945.3206;;;;
2020/07/12 08:37:53;;;;;;;0.8;0.7;;;;;;;30.61;36.65527;945.258;;;;
2020/07/12 08:40:24;;;;;;;1.6;0.7;;;;;;;30.81;33.99316;945.3134;;;;
2020/07/12 08:42:49;;;;;;;1;0.6;;;;;;;30.57;37.39258;945.3063;;;;
2020/07/12 08:45:14;;;;;;;1.6;0.8;;;;;;;31.11;35.24805;945.3513;;;;
2020/07/12 08:47:41;;;;;;;1.2;0.7;;;;;;;31.1;32.90332;945.2819;;;;
2020/07/12 08:50:06;;;;;;;1.7;0.9;;;;;;;30.69;34.25977;945.235;;;;
2020/07/12 08:52:32;;;;;;;1.4;0.6;;;;;;;29.75;37.71777;945.2142;;;;
2020/07/12 08:54:57;;;;;;;2.2;0.7;;;;;;;30.68;35.50195;945.2015;;;;
2020/07/12 08:57:23;;;;;;;1.2;0.8;;;;;;;31.27;35.81152;945.1825;;;;
2020/07/12 08:59:48;;;;;;;1.6;0.7;;;;;;;32.48;34.16699;945.1512;;;;
2020/07/12 09:02:14;;;;;;;0.7;0.6;;;;;;;33.23;31.8916;945.1323;;;;
2020/07/12 09:04:39;;;;;;;2.5;0.7;;;;;;;32.73;31.18457;945.1125;;;;
2020/07/12 09:07:04;;;;;;;1;0.7;;;;;;;32.83;32.75293;945.1242;;;;
2020/07/12 09:09:29;;;;;;;1.6;0.6;;;;;;;32.14;35.38867;945.1209;;;;
2020/07/12 09:11:54;;;;;;;0.7;0.5;;;;;;;32.65;35.09277;945.1646;;;;
2020/07/12 09:14:19;;;;;;;1.9;0.6;;;;;;;30.21;35.22559;945.1247;;;;
2020/07/12 09:16:48;;;;;;;1.3;0.8;;;;;;;29.94;35.47949;945.0922;;;;
2020/07/12 09:19:18;;;;;;;0.9;0.7;;;;;;;29.85;37.21387;945.158;;;;
2020/07/12 09:21:43;;;;;;;2.4;0.8;;;;;;;30.24;38.80957;945.1431;;;;
2020/07/12 09:24:10;;;;;;;2.1;0.7;;;;;;;29.82;38.34473;945.1387;;;;
2020/07/12 09:26:35;;;;;;;3.4;0.7;;;;;;;29.99;37.1543;945.1453;;;;
2020/07/12 09:29:02;;;;;;;0.9;0.7;;;;;;;30.22;36.69531;945.1141;;;;
2020/07/12 09:31:27;;;;;;;1.1;0.9;;;;;;;29.77;36.90918;945.1533;;;;
2020/07/12 09:33:53;;;;;;;3.1;0.8;;;;;;;29.94;36.88672;945.1678;;;;
2020/07/12 09:36:18;;;;;;;0.9;0.7;;;;;;;29.5;37.91211;945.1164;;;;
2020/07/12 09:38:44;;;;;;;2;0.7;;;;;;;29.04;39.62402;945.106;;;;
2020/07/12 09:41:09;;;;;;;1.4;0.8;;;;;;;28.79;40.92383;945.135;;;;
2020/07/12 09:43:36;;;;;;;2.9;0.7;;;;;;;28.89;41.8125;945.0922;;;;
2020/07/12 09:46:01;;;;;;;0.9;0.6;;;;;;;28.85;40.03516;945.0661;;;;
2020/07/12 09:48:26;;;;;;;1.1;0.7;;;;;;;28.87;38.89453;945.1061;;;;
2020/07/12 09:50:51;;;;;;;2.1;0.6;;;;;;;28.8;38.54297;945.0756;;;;
2020/07/12 09:53:18;;;;;;;1.1;0.7;;;;;;;28.46;38.99023;945.1512;;;;
2020/07/12 09:55:43;;;;;;;1;0.6;;;;;;;28.94;39.68652;945.1608;;;;
2020/07/12 09:58:10;;;;;;;1.7;0.8;;;;;;;28.94;38.91211;945.1808;;;;
2020/07/12 10:00:44;;;;;;;2.5;0.7;;;;;;;29.04;39.0752;945.1342;;;;
2020/07/12 10:03:11;;;;;;;1.5;0.7;;;;;;;28.53;39.86426;945.1537;;;;
2020/07/12 10:05:36;;;;;;;2.2;0.7;;;;;;;27.76;39.22656;945.1711;;;;
2020/07/12 10:08:02;;;;;;;0.8;0.6;;;;;;;27.76;40.15137;945.1933;;;;
2020/07/12 10:10:27;;;;;;;1.5;0.7;;;;;;;27.09;42.9502;945.2097;;;;
2020/07/12 10:12:53;;;;;;;3;0.7;;;;;;;26.84;43.38672;945.1867;;;;
2020/07/12 10:15:18;;;;;;;1;0.7;;;;;;;26.64;42.11328;945.26;;;;
2020/07/12 10:17:45;;;;;;;1.6;0.8;;;;;;;25.98;43.5293;945.2062;;;;
2020/07/12 10:20:12;;;;;;;2.7;0.6;;;;;;;25.93;45.23926;945.1852;;;;
2020/07/12 10:22:36;;;;;;;1.7;0.8;;;;;;;26.07;46.10449;945.1738;;;;
2020/07/12 10:25:02;;;;;;;2.8;0.8;;;;;;;26.19;44.49512;945.1158;;;;
2020/07/12 10:27:27;;;;;;;1.2;0.7;;;;;;;25.9;45.16504;945.1742;;;;
2020/07/12 10:29:52;;;;;;;1.8;0.7;;;;;;;25.91;44.98828;945.1772;;;;
2020/07/12 10:32:17;;;;;;;0.6;0.6;;;;;;;25.84;42.32129;945.1186;;;;
2020/07/12 10:34:43;;;;;;;1.5;0.7;;;;;;;26.03;44.2666;945.1277;;;;
2020/07/12 10:37:08;;;;;;;1.1;0.8;;;;;;;26.25;43.7207;945.051;;;;
2020/07/12 10:39:34;;;;;;;1.2;0.8;;;;;;;26.45;41.95313;945.0397;;;;
2020/07/12 10:41:59;;;;;;;1.5;0.7;;;;;;;26.2;41.88184;944.9967;;;;
2020/07/12 10:44:25;;;;;;;1.3;0.7;;;;;;;26.08;42.58105;944.9648;;;;
2020/07/12 10:46:50;;;;;;;1.7;0.7;;;;;;;26.01;43.30664;945.0403;;;;
2020/07/12 10:49:17;;;;;;;1.5;0.7;;;;;;;26.04;41.99707;944.9283;;;;
2020/07/12 10:51:42;;;;;;;2.6;0.8;;;;;;;26.23;42.12207;944.9877;;;;
2020/07/12 10:54:09;;;;;;;1.4;0.7;;;;;;;26.41;42.9082;944.9888;;;;
2020/07/12 10:56:34;;;;;;;1.9;0.7;;;;;;;26.47;39.91797;945.0433;;;;
2020/07/12 10:59:02;;;;;;;2.5;0.7;;;;;;;26.45;40.46094;944.9984;;;;
2020/07/12 11:01:27;;;;;;;2.3;0.8;;;;;;;26.08;42.2373;944.9578;;;;
2020/07/12 11:03:59;;;;;;;1.7;0.8;;;;;;;26.12;42.04004;945.0223;;;;
2020/07/12 11:06:25;;;;;;;2.3;0.7;;;;;;;25.88;42.30078;945.0577;;;;
2020/07/12 11:08:54;;;;;;;1.3;0.6;;;;;;;26.07;41.62207;944.9661;;;;
2020/07/12 11:11:15;;;;;;;2.8;0.9;;;;;;;26.18;41.65527;944.9373;;;;
2020/07/12 11:13:43;;;;;;;2.6;0.9;;;;;;;25.61;43.375;944.9188;;;;
2020/07/12 11:16:08;;;;;;;1.8;0.8;;;;;;;25.58;43.79785;944.8691;;;;
2020/07/12 11:18:33;;;;;;;0.8;0.7;;;;;;;25.56;41.40918;944.8855;;;;
2020/07/12 11:20:59;;;;;;;1.6;0.7;;;;;;;25.32;43.20508;944.8755;;;;
2020/07/12 11:23:25;;;;;;;1;0.7;;;;;;;25.49;42.67773;944.8644;;;;
2020/07/12 11:25:50;;;;;;;1;0.7;;;;;;;25.17;41.44434;944.8658;;;;
2020/07/12 11:28:18;;;;;;;1.6;0.8;;;;;;;25.4;41.88965;944.7869;;;;
2020/07/12 11:30:43;;;;;;;2;0.7;;;;;;;25.2;41.3877;944.8411;;;;
2020/07/12 11:33:08;;;;;;;1.6;0.8;;;;;;;25.16;40.83984;944.8233;;;;
2020/07/12 11:35:37;;;;;;;1.5;0.8;;;;;;;24.92;45.12598;944.7855;;;;
2020/07/12 11:38:03;;;;;;;1.8;0.8;;;;;;;24.91;42.52734;944.8895;;;;
2020/07/12 11:40:27;;;;;;;1.6;0.8;;;;;;;25.05;45.45703;944.8181;;;;
2020/07/12 11:42:55;;;;;;;1.6;0.7;;;;;;;25.01;42.80957;944.8666;;;;
2020/07/12 11:45:20;;;;;;;2.3;0.8;;;;;;;25.23;44.09375;944.8412;;;;
2020/07/12 11:47:48;;;;;;;1.7;0.7;;;;;;;25.45;41.35156;944.8073;;;;
2020/07/12 11:50:13;;;;;;;1.7;0.7;;;;;;;25.39;40.82617;944.8281;;;;
2020/07/12 11:52:38;;;;;;;1.9;0.7;;;;;;;25.36;43.92969;944.8528;;;;
2020/07/12 11:55:08;;;;;;;1.8;0.8;;;;;;;25.41;42.39844;944.8647;;;;
2020/07/12 11:57:33;;;;;;;1.7;0.8;;;;;;;25.32;42.22559;944.9233;;;;
2020/07/12 11:59:58;;;;;;;1.2;0.8;;;;;;;25.21;44.13867;944.8467;;;;
2020/07/12 12:02:23;;;;;;;0.7;0.7;;;;;;;25.3;43.19238;944.8401;;;;
2020/07/12 12:04:49;;;;;;;1.9;0.9;;;;;;;25.21;44.38672;944.9208;;;;
2020/07/12 12:07:13;;;;;;;2;0.7;;;;;;;25.07;44.56152;944.9233;;;;
2020/07/12 12:09:40;;;;;;;1.9;0.7;;;;;;;25.28;43.54395;944.8347;;;;
2020/07/12 12:12:08;;;;;;;3.4;0.8;;;;;;;25.36;43.7168;944.8674;;;;
2020/07/12 12:14:33;;;;;;;1.6;0.9;;;;;;;25.53;46.58105;944.9241;;;;
2020/07/12 12:16:58;;;;;;;2.1;0.8;;;;;;;25.6;43.46875;944.8667;;;;
2020/07/12 12:19:23;;;;;;;1.5;0.7;;;;;;;25.78;44.07715;944.8954;;;;
2020/07/12 12:22:05;;;;;;;2;0.9;;;;;;;25.67;44.5625;944.9029;;;;
2020/07/12 12:24:30;;;;;;;1.5;0.9;;;;;;;25.19;46.1084;944.8831;;;;
2020/07/12 12:26:55;;;;;;;2.3;0.9;;;;;;;25.27;45.44434;944.829;;;;
2020/07/12 12:29:22;;;;;;;1.3;0.8;;;;;;;25.28;45.4209;944.8384;;;;
2020/07/12 12:31:48;;;;;;;1.1;0.8;;;;;;;25.14;43.02246;944.7888;;;;
2020/07/12 12:34:13;;;;;;;1.7;0.8;;;;;;;25.08;43.22949;944.7681;;;;
2020/07/12 12:36:39;;;;;;;1.6;0.8;;;;;;;24.96;45.97754;944.676;;;;
2020/07/12 12:39:04;;;;;;;1.4;0.9;;;;;;;25.12;45.83008;944.796;;;;
2020/07/12 12:41:29;;;;;;;2.6;0.8;;;;;;;25.3;43.21484;944.7589;;;;
2020/07/12 12:43:54;;;;;;;1;0.8;;;;;;;25.13;43.81152;944.7573;;;;
2020/07/12 12:46:19;;;;;;;1.8;0.8;;;;;;;25.15;43.94434;944.7214;;;;
2020/07/12 12:48:44;;;;;;;2.9;0.9;;;;;;;24.84;43.99609;944.7144;;;;
2020/07/12 12:51:10;;;;;;;3.3;2.4;;;;;;;25;43.375;944.6892;;;;
2020/07/12 12:54:09;;;;;;;3.3;2.1;;;;;;;24.97;45.79102;944.66;;;;
2020/07/12 12:56:34;;;;;;;2.5;1.7;;;;;;;25.02;43.84961;944.6575;;;;
2020/07/12 12:59:21;;;;;;;3.5;2;;;;;;;24.97;46.65234;944.69;;;;
2020/07/12 13:01:49;;;;;;;2.6;2;;;;;;;24.97;45.69629;944.6558;;;;
2020/07/12 13:04:14;;;;;;;6.6;1.5;;;;;;;25.02;45.27637;944.6951;;;;
2020/07/12 13:06:39;;;;;;;2.4;0.9;;;;;;;25;45.01465;944.6508;;;;
2020/07/12 13:09:10;;;;;;;2.9;1;;;;;;;25;45.64063;944.7111;;;;
2020/07/12 13:11:35;;;;;;;2;0.9;;;;;;;24.98;43.39551;944.6498;;;;
2020/07/12 13:14:00;;;;;;;5;0.8;;;;;;;25.16;44.15723;944.6586;;;;
2020/07/12 13:16:49;;;;;;;1.9;0.9;;;;;;;25.29;44.11133;944.6728;;;;
2020/07/12 13:19:14;;;;;;;1.2;0.8;;;;;;;25.26;44.06152;944.6567;;;;
2020/07/12 13:21:39;;;;;;;1.5;0.8;;;;;;;25.32;44.66895;944.6537;;;;
2020/07/12 13:24:04;;;;;;;2.2;1;;;;;;;25.47;43.45703;944.6399;;;;
2020/07/12 13:26:29;;;;;;;2.5;0.9;;;;;;;25.35;42.02734;944.6133;;;;
2020/07/12 13:28:55;;;;;;;1.6;0.9;;;;;;;25.01;41.31152;944.6325;;;;
2020/07/12 13:31:20;;;;;;;2.4;0.9;;;;;;;24.96;44.25586;944.6373;;;;
2020/07/12 13:33:45;;;;;;;1.5;0.8;;;;;;;25;43.49316;944.6699;;;;
2020/07/12 13:36:10;;;;;;;1.1;0.7;;;;;;;24.83;43.97266;944.6086;;;;
2020/07/12 13:38:35;;;;;;;1.3;0.8;;;;;;;24.69;44.21777;944.6361;;;;
2020/07/12 13:41:00;;;;;;;2.6;0.8;;;;;;;24.59;45.16211;944.6305;;;;
2020/07/12 13:43:26;;;;;;;3.5;0.9;;;;;;;24.68;45.53613;944.6194;;;;
2020/07/12 13:45:56;;;;;;;2;0.8;;;;;;;24.62;43.77441;944.6292;;;;
2020/07/12 13:48:25;;;;;;;4.2;0.8;;;;;;;24.18;43.6377;944.5864;;;;
2020/07/12 13:50:52;;;;;;;1.5;0.9;;;;;;;24.13;42.26563;944.5848;;;;
2020/07/12 13:53:18;;;;;;;3.6;0.8;;;;;;;23.81;44.70605;944.6246;;;;
2020/07/12 13:55:43;;;;;;;1;0.7;;;;;;;23.7;42.26074;944.5941;;;;
2020/07/12 13:58:08;;;;;;;1.1;0.7;;;;;;;23.83;43.7666;944.5975;;;;
2020/07/12 14:00:37;;;;;;;1.5;0.6;;;;;;;24.12;44.41992;944.5338;;;;
2020/07/12 14:03:04;;;;;;;1.6;0.7;;;;;;;23.94;44.88379;944.5372;;;;
2020/07/12 14:05:29;;;;;;;1.9;0.7;;;;;;;24.07;44.50781;944.5731;;;;
2020/07/12 14:07:56;;;;;;;1.2;0.8;;;;;;;24.23;43.16992;944.5148;;;;
2020/07/12 14:10:22;;;;;;;1.1;0.7;;;;;;;24.03;43.22168;944.5661;;;;
2020/07/12 14:12:47;;;;;;;1.3;0.9;;;;;;;24.22;42.63867;944.503;;;;
2020/07/12 14:15:12;;;;;;;2.4;0.8;;;;;;;24.11;42.49902;944.5098;;;;
2020/07/12 14:17:38;;;;;;;1.1;0.8;;;;;;;24.09;45.07617;944.5894;;;;
2020/07/12 14:20:02;;;;;;;1.3;0.8;;;;;;;23.9;42.44434;944.5092;;;;
2020/07/12 14:22:27;;;;;;;1.2;0.7;;;;;;;23.66;41.5625;944.5609;;;;
2020/07/12 14:24:53;;;;;;;3.4;1;;;;;;;23.54;43.08008;944.5073;;;;
2020/07/12 14:27:18;;;;;;;1.7;0.8;;;;;;;23.7;44.84863;944.568;;;;
2020/07/12 14:29:43;;;;;;;1.4;0.8;;;;;;;23.74;43.80566;944.5618;;;;
2020/07/12 14:32:09;;;;;;;4.8;1.1;;;;;;;23.65;42.10352;944.5485;;;;
2020/07/12 14:34:36;;;;;;;2.9;0.9;;;;;;;23.7;41.89551;944.551;;;;
2020/07/12 14:37:02;;;;;;;2.3;0.9;;;;;;;23.56;42.30566;944.5588;;;;
2020/07/12 14:39:27;;;;;;;1.8;0.8;;;;;;;23.29;42.67969;944.5675;;;;
2020/07/12 14:41:52;;;;;;;2.7;0.9;;;;;;;23.08;43.89258;944.5164;;;;
2020/07/12 14:44:18;;;;;;;1.8;0.9;;;;;;;23.28;41.80859;944.5499;;;;
2020/07/12 14:46:43;;;;;;;1.5;0.7;;;;;;;23.1;43.14258;944.5947;;;;
2020/07/12 14:49:08;;;;;;;2.5;0.8;;;;;;;23.22;42.33203;944.5424;;;;
2020/07/12 14:51:34;;;;;;;1.7;0.9;;;;;;;23.11;43.61426;944.5724;;;;
2020/07/12 14:53:58;;;;;;;1.1;0.7;;;;;;;22.88;43.2041;944.4877;;;;
2020/07/12 14:56:23;;;;;;;2.1;0.8;;;;;;;22.98;44.75195;944.5466;;;;
2020/07/12 14:58:49;;;;;;;1.3;0.8;;;;;;;23.19;44.01074;944.5499;;;;
2020/07/12 15:01:14;;;;;;;1.8;0.9;;;;;;;23.09;44.95215;944.5421;;;;
2020/07/12 15:03:40;;;;;;;1.5;0.9;;;;;;;23.36;45.95508;944.5765;;;;
2020/07/12 15:06:04;;;;;;;1.7;0.9;;;;;;;23.29;44.37207;944.7056;;;;
2020/07/12 15:08:29;;;;;;;2.2;0.9;;;;;;;23.06;45.67773;944.6167;;;;
2020/07/12 15:10:57;;;;;;;0.8;0.7;;;;;;;22.96;45.15039;944.6097;;;;
2020/07/12 15:13:34;;;;;;;1.9;0.9;;;;;;;22.75;46.94922;944.6522;;;;
2020/07/12 15:16:02;;;;;;;1.4;1;;;;;;;22.69;47.54102;944.6369;;;;
2020/07/12 15:18:27;;;;;;;2.5;1;;;;;;;22.7;47.44824;944.5853;;;;
2020/07/12 15:20:52;;;;;;;2.5;0.8;;;;;;;22.86;46.30273;944.572;;;;
2020/07/12 15:23:17;;;;;;;1.1;0.8;;;;;;;22.96;45.38477;944.5733;;;;
2020/07/12 15:25:44;;;;;;;0.8;0.8;;;;;;;22.78;45.27344;944.5645;;;;
2020/07/12 15:28:32;;;;;;;1.8;0.9;;;;;;;22.59;45.875;944.5597;;;;
2020/07/12 15:30:57;;;;;;;1;0.8;;;;;;;22.7;47.44727;944.6253;;;;
2020/07/12 15:33:22;;;;;;;1.4;0.9;;;;;;;22.56;46.9873;944.6383;;;;
2020/07/12 15:35:48;;;;;;;3.5;0.8;;;;;;;22.35;45.6748;944.6591;;;;